Time;durP1;ratioP1;P1;durP2;ratioP2;P2;SDS_P1;SDS_P2;PMS_P1;PMS_P2;Temp;Humidity;BMP_temperature;BMP_pressure;BME280_temperature;BME280_humidity;BME280_pressure;Samples;Min_cycle;Max_cycle;Signal;HPM_P1;HPM_P2
2023/12/30 00:01:34;;;;;;;2.67;1.33;;;;;;;8.32;100.00;98677.31;5023173;28;20022;-77
2023/12/30 00:03:59;;;;;;;2.47;1.20;;;;;;;8.33;100.00;98684.38;5031961;28;20029;-77
2023/12/30 00:06:25;;;;;;;2.53;1.23;;;;;;;8.25;100.00;98662.94;5030062;28;20022;-77
2023/12/30 00:08:50;;;;;;;3.75;1.70;;;;;;;8.26;100.00;98667.31;5032351;28;20086;-77
2023/12/30 00:11:15;;;;;;;2.25;1.15;;;;;;;8.39;100.00;98672.88;5029838;28;20061;-77
2023/12/30 00:13:41;;;;;;;3.40;1.10;;;;;;;8.40;100.00;98674.53;5032460;28;20033;-77
2023/12/30 00:16:06;;;;;;;2.47;1.30;;;;;;;8.40;100.00;98662.91;5026737;28;20071;-77
2023/12/30 00:18:31;;;;;;;2.42;1.20;;;;;;;8.41;100.00;98660.03;5016864;28;20471;-76
2023/12/30 00:20:58;;;;;;;3.53;1.33;;;;;;;8.38;100.00;98649.56;5014369;28;20048;-76
2023/12/30 00:23:23;;;;;;;2.08;1.25;;;;;;;8.47;100.00;98664.66;5013201;28;20518;-76
2023/12/30 00:25:48;;;;;;;1.65;1.13;;;;;;;8.47;100.00;98664.66;5014533;28;20029;-77
2023/12/30 00:28:13;;;;;;;3.75;1.10;;;;;;;8.37;100.00;98658.72;5019522;28;20021;-76
2023/12/30 00:30:39;;;;;;;4.50;1.38;;;;;;;8.35;100.00;98660.75;5021642;28;20030;-77
2023/12/30 00:33:05;;;;;;;3.15;1.17;;;;;;;8.26;100.00;98662.75;5020216;28;20244;-77
2023/12/30 00:35:30;;;;;;;1.92;0.88;;;;;;;8.26;100.00;98662.75;5021373;28;20026;-76
2023/12/30 00:37:56;;;;;;;2.20;1.10;;;;;;;8.30;100.00;98653.22;5014049;28;20375;-75
2023/12/30 00:40:21;;;;;;;2.88;1.48;;;;;;;8.39;100.00;98656.69;5014381;28;20028;-76
2023/12/30 00:42:46;;;;;;;4.55;1.10;;;;;;;8.40;100.00;98646.75;5018003;28;20027;-76
2023/12/30 00:45:11;;;;;;;2.03;1.00;;;;;;;8.36;100.00;98648.97;5010778;28;20368;-76
2023/12/30 00:47:37;;;;;;;4.85;1.70;;;;;;;8.40;100.00;98657.53;5006512;28;20114;-76
2023/12/30 00:50:02;;;;;;;3.90;1.58;;;;;;;8.26;100.00;98649.28;5012888;28;20026;-76
2023/12/30 00:52:28;;;;;;;3.63;1.50;;;;;;;8.31;100.00;98659.50;5013767;28;20026;-76
2023/12/30 00:54:53;;;;;;;2.20;1.27;;;;;;;8.34;100.00;98669.88;5014095;28;20036;-76
2023/12/30 00:57:18;;;;;;;2.55;1.38;;;;;;;8.28;100.00;98659.88;5013785;28;20040;-76
2023/12/30 00:59:44;;;;;;;2.75;1.30;;;;;;;8.29;100.00;98673.16;5013680;28;20121;-76
2023/12/30 01:02:09;;;;;;;4.82;1.42;;;;;;;8.13;100.00;98681.47;5014143;28;20029;-75
2023/12/30 01:04:34;;;;;;;2.88;1.50;;;;;;;7.92;100.00;98674.19;5014903;28;20032;-75
2023/12/30 01:06:59;;;;;;;6.28;1.75;;;;;;;7.82;100.00;98679.03;5015330;28;20061;-75
2023/12/30 01:09:25;;;;;;;6.13;1.67;;;;;;;7.81;100.00;98682.78;5009108;28;20034;-75
2023/12/30 01:11:50;;;;;;;1.85;1.30;;;;;;;7.79;100.00;98688.34;5009298;28;20057;-75
2023/12/30 01:14:15;;;;;;;2.20;1.35;;;;;;;7.77;100.00;98689.53;5012324;28;20399;-75
2023/12/30 01:16:40;;;;;;;3.25;1.50;;;;;;;7.78;100.00;98686.69;5013191;28;20038;-76
2023/12/30 01:19:06;;;;;;;5.30;1.60;;;;;;;7.98;100.00;98710.31;5012410;28;20033;-76
2023/12/30 01:21:31;;;;;;;3.90;1.27;;;;;;;8.01;100.00;98710.75;5008125;28;20080;-75
2023/12/30 01:23:56;;;;;;;3.38;1.40;;;;;;;8.11;100.00;98702.38;5013641;28;20053;-76
2023/12/30 01:26:23;;;;;;;2.60;1.60;;;;;;;8.21;100.00;98711.00;5012988;28;20025;-76
2023/12/30 01:28:48;;;;;;;5.80;1.55;;;;;;;8.18;100.00;98710.56;5012952;28;20029;-76
2023/12/30 01:31:14;;;;;;;3.28;1.40;;;;;;;8.28;100.00;98711.09;5013473;28;20026;-76
2023/12/30 01:33:39;;;;;;;2.75;1.40;;;;;;;8.35;100.00;98726.28;5019931;28;20025;-76
2023/12/30 01:36:06;;;;;;;3.60;1.50;;;;;;;8.31;100.00;98730.41;5013246;28;20140;-76
2023/12/30 01:38:31;;;;;;;2.53;1.00;;;;;;;8.24;100.00;98729.47;5004457;28;20416;-75
2023/12/30 01:40:57;;;;;;;2.42;1.25;;;;;;;8.17;100.00;98727.72;5010880;28;20112;-75
2023/12/30 01:43:30;;;;;;;2.33;1.10;;;;;;;8.27;100.00;98744.44;5013516;28;20073;-76
2023/12/30 01:46:04;;;;;;;2.35;1.27;;;;;;;8.29;100.00;98753.19;5011765;28;20128;-75
2023/12/30 01:48:30;;;;;;;2.13;1.20;;;;;;;8.23;100.00;98741.28;5007966;28;20037;-75
2023/12/30 01:50:58;;;;;;;1.52;0.95;;;;;;;8.23;100.00;98759.34;5007142;28;20046;-75
2023/12/30 01:53:24;;;;;;;3.75;1.40;;;;;;;8.21;100.00;98772.16;5012911;28;20032;-75
2023/12/30 01:55:51;;;;;;;2.83;1.20;;;;;;;8.13;100.00;98763.16;5013545;28;20494;-76
2023/12/30 01:58:18;;;;;;;3.58;1.10;;;;;;;8.11;100.00;98767.88;5012529;28;20130;-76
2023/12/30 02:00:48;;;;;;;3.03;1.17;;;;;;;8.04;100.00;98772.38;5012042;28;20076;-75
2023/12/30 02:03:15;;;;;;;4.25;1.52;;;;;;;8.04;100.00;98780.47;5013880;28;20099;-76
2023/12/30 02:05:40;;;;;;;2.88;1.30;;;;;;;8.03;100.00;98784.16;5012423;28;20057;-76
2023/12/30 02:08:06;;;;;;;3.65;1.10;;;;;;;8.05;100.00;98783.97;5012054;28;20060;-76
2023/12/30 02:10:31;;;;;;;2.33;0.90;;;;;;;7.99;100.00;98784.72;5008531;28;20491;-76
2023/12/30 02:12:56;;;;;;;3.15;1.30;;;;;;;7.99;100.00;98793.66;5011968;28;20030;-76
2023/12/30 02:15:22;;;;;;;1.95;1.20;;;;;;;7.90;100.00;98808.22;5011806;28;20084;-76
2023/12/30 02:17:51;;;;;;;1.55;1.00;;;;;;;7.91;100.00;98804.50;5010337;28;20369;-76
2023/12/30 02:20:17;;;;;;;3.00;1.20;;;;;;;7.86;100.00;98793.47;5011326;28;20083;-76
2023/12/30 02:22:45;;;;;;;3.17;1.30;;;;;;;7.96;100.00;98802.09;5012110;28;20030;-76
2023/12/30 02:25:11;;;;;;;1.97;1.00;;;;;;;7.81;100.00;98775.19;5010406;28;20029;-76
2023/12/30 02:27:36;;;;;;;3.15;1.00;;;;;;;7.90;100.00;98779.44;5012105;28;20037;-75
2023/12/30 02:30:02;;;;;;;1.92;1.08;;;;;;;7.99;100.00;98801.75;5011411;28;20037;-75
2023/12/30 02:32:27;;;;;;;2.13;1.02;;;;;;;7.86;100.00;98791.63;5012254;28;20479;-75
2023/12/30 02:34:53;;;;;;;3.00;1.15;;;;;;;7.98;100.00;98812.69;5018378;28;20048;-75
2023/12/30 02:37:18;;;;;;;1.73;1.02;;;;;;;7.92;100.00;98821.53;5010044;28;20053;-75
2023/12/30 02:39:43;;;;;;;4.43;1.30;;;;;;;7.83;100.00;98812.69;5010219;28;20045;-75
2023/12/30 02:42:09;;;;;;;3.90;0.73;;;;;;;7.81;100.00;98820.13;5011920;28;20118;-75
2023/12/30 02:44:34;;;;;;;2.05;0.85;;;;;;;7.68;100.00;98821.59;5012513;28;20037;-75
2023/12/30 02:46:59;;;;;;;1.75;1.00;;;;;;;7.65;100.00;98831.88;5007953;28;20179;-75
2023/12/30 02:49:25;;;;;;;2.92;1.10;;;;;;;7.62;100.00;98837.63;5046727;23;20041;-53
2023/12/30 02:51:50;;;;;;;3.05;1.17;;;;;;;7.54;100.00;98840.41;5069067;28;20057;-52
2023/12/30 02:54:15;;;;;;;2.67;0.77;;;;;;;7.56;100.00;98844.59;5070326;28;20459;-52
2023/12/30 02:56:41;;;;;;;4.68;0.90;;;;;;;7.49;100.00;98851.72;5075935;28;20037;-51
2023/12/30 02:59:06;;;;;;;1.58;0.98;;;;;;;7.53;100.00;98850.34;5086771;28;20020;-52
2023/12/30 03:01:32;;;;;;;3.42;1.40;;;;;;;7.53;100.00;98855.75;5084564;28;20362;-52
2023/12/30 03:03:59;;;;;;;3.55;0.95;;;;;;;7.49;100.00;98858.97;5080313;28;20020;-51
2023/12/30 03:06:25;;;;;;;1.38;0.93;;;;;;;7.47;100.00;98864.56;5075296;28;20551;-51
2023/12/30 03:08:51;;;;;;;3.35;1.00;;;;;;;7.47;100.00;98872.63;5064250;28;20032;-51
2023/12/30 03:11:17;;;;;;;1.90;0.80;;;;;;;7.51;100.00;98881.16;5082473;28;20031;-52
2023/12/30 03:13:43;;;;;;;4.28;0.95;;;;;;;7.49;100.00;98888.59;5083183;28;20035;-51
2023/12/30 03:16:11;;;;;;;3.88;1.40;;;;;;;7.50;100.00;98895.66;5081001;28;20028;-50
2023/12/30 03:18:37;;;;;;;1.95;0.80;;;;;;;7.43;100.00;98890.16;5084636;28;20016;-51
2023/12/30 03:21:07;;;;;;;5.82;1.27;;;;;;;7.37;100.00;98891.72;5078102;28;20020;-52
2023/12/30 03:23:32;;;;;;;2.97;0.95;;;;;;;7.40;100.00;98891.34;5083674;28;20031;-52
2023/12/30 03:25:58;;;;;;;3.75;1.20;;;;;;;7.41;100.00;98889.50;5075426;28;20028;-52
2023/12/30 03:28:24;;;;;;;4.95;1.65;;;;;;;7.35;100.00;98884.84;5084906;28;20107;-52
2023/12/30 03:30:49;;;;;;;2.85;1.27;;;;;;;7.40;100.00;98887.81;5080149;28;20059;-52
2023/12/30 03:33:15;;;;;;;1.95;1.00;;;;;;;7.40;100.00;98890.53;5083394;28;20056;-52
2023/12/30 03:35:40;;;;;;;3.35;1.15;;;;;;;7.42;100.00;98889.31;5076212;28;20029;-52
2023/12/30 03:38:06;;;;;;;2.20;1.20;;;;;;;7.44;100.00;98886.44;5083404;28;20071;-52
2023/12/30 03:40:31;;;;;;;6.97;1.67;;;;;;;7.36;100.00;98875.72;5089420;28;20070;-53
2023/12/30 03:42:56;;;;;;;5.10;1.80;;;;;;;7.28;100.00;98870.41;5090183;28;20020;-52
2023/12/30 03:45:22;;;;;;;4.40;2.33;;;;;;;7.19;100.00;98861.59;5075118;28;20392;-52
2023/12/30 03:47:47;;;;;;;4.97;2.60;;;;;;;7.12;100.00;98869.53;5074979;28;20475;-52
2023/12/30 03:50:13;;;;;;;6.38;3.13;;;;;;;7.07;100.00;98869.22;5081519;28;20028;-52
2023/12/30 03:52:38;;;;;;;7.15;4.38;;;;;;;7.02;100.00;98868.94;5078691;28;20058;-52
2023/12/30 03:55:04;;;;;;;8.43;4.72;;;;;;;7.00;100.00;98871.81;5087449;28;20031;-52
2023/12/30 03:57:29;;;;;;;10.45;4.97;;;;;;;6.98;100.00;98875.69;5079816;28;20074;-52
2023/12/30 03:59:55;;;;;;;7.45;3.70;;;;;;;6.96;100.00;98870.47;5079664;28;20103;-52
2023/12/30 04:02:21;;;;;;;15.52;5.45;;;;;;;7.00;100.00;98876.34;5085333;28;20107;-52
2023/12/30 04:04:49;;;;;;;7.13;4.18;;;;;;;7.06;100.00;98874.81;5078019;28;20384;-52
2023/12/30 04:07:15;;;;;;;7.18;3.58;;;;;;;7.03;100.00;98876.81;5074509;28;20036;-53
2023/12/30 04:09:40;;;;;;;9.68;3.75;;;;;;;7.10;100.00;98876.97;5079886;28;20059;-52
2023/12/30 04:12:06;;;;;;;9.00;2.95;;;;;;;7.07;100.00;98871.91;5073331;28;20081;-52
2023/12/30 04:14:31;;;;;;;5.68;3.40;;;;;;;7.13;100.00;98873.06;5093892;28;20039;-52
2023/12/30 04:16:57;;;;;;;12.15;3.10;;;;;;;7.09;100.00;98864.50;5072415;28;20027;-52
2023/12/30 04:19:24;;;;;;;4.32;2.50;;;;;;;7.16;100.00;98876.22;5075030;28;20549;-52
2023/12/30 04:21:49;;;;;;;7.00;2.63;;;;;;;7.25;100.00;98882.38;5086970;28;20024;-52
2023/12/30 04:24:15;;;;;;;4.40;2.55;;;;;;;7.25;100.00;98877.00;5076397;28;20032;-52
2023/12/30 04:26:42;;;;;;;5.22;2.95;;;;;;;7.26;100.00;98881.38;5085125;28;20085;-52
2023/12/30 04:29:08;;;;;;;6.00;2.90;;;;;;;7.28;100.00;98881.19;5087243;28;20526;-52
2023/12/30 04:31:33;;;;;;;6.03;2.67;;;;;;;7.28;100.00;98882.00;5073850;28;20028;-52
2023/12/30 04:34:00;;;;;;;3.58;2.42;;;;;;;7.33;100.00;98881.47;5073263;28;20036;-52
2023/12/30 04:36:25;;;;;;;3.38;2.20;;;;;;;7.29;100.00;98869.41;5074227;28;20043;-52
2023/12/30 04:38:51;;;;;;;6.18;3.03;;;;;;;7.36;100.00;98881.97;5075215;28;20035;-52
2023/12/30 04:41:16;;;;;;;4.28;3.15;;;;;;;7.35;100.00;98882.97;5088997;28;20476;-52
2023/12/30 04:43:41;;;;;;;5.18;3.55;;;;;;;7.36;100.00;98871.22;5094088;28;20429;-52
2023/12/30 04:46:07;;;;;;;4.20;3.05;;;;;;;7.36;100.00;98886.50;5085077;28;20028;-52
2023/12/30 04:48:32;;;;;;;8.07;3.05;;;;;;;7.36;100.00;98883.81;5082370;28;20025;-52
2023/12/30 04:50:58;;;;;;;3.65;2.92;;;;;;;7.35;100.00;98879.47;5079376;28;20025;-52
2023/12/30 04:53:23;;;;;;;5.43;3.08;;;;;;;7.38;100.00;98885.31;5089577;28;20024;-52
2023/12/30 04:55:49;;;;;;;3.80;2.72;;;;;;;7.40;100.00;98898.59;5082908;28;20043;-52
2023/12/30 04:58:16;;;;;;;4.80;2.08;;;;;;;7.42;100.00;98891.19;5077455;28;20438;-51
2023/12/30 05:00:41;;;;;;;2.70;1.80;;;;;;;7.45;100.00;98890.81;5082539;28;20526;-52
2023/12/30 05:03:07;;;;;;;4.05;1.80;;;;;;;7.44;100.00;98895.38;5084138;28;20070;-51
2023/12/30 05:05:32;;;;;;;6.55;1.52;;;;;;;7.41;100.00;98894.88;5087140;28;20441;-52
2023/12/30 05:07:59;;;;;;;2.10;1.30;;;;;;;7.41;100.00;98892.19;5077894;28;20034;-51
2023/12/30 05:10:24;;;;;;;3.47;1.52;;;;;;;7.45;100.00;98886.25;5090674;28;20027;-52
2023/12/30 05:12:50;;;;;;;5.03;1.73;;;;;;;7.46;100.00;98898.69;5093856;28;20044;-51
2023/12/30 05:15:15;;;;;;;4.50;1.70;;;;;;;7.41;100.00;98884.97;5089272;28;20028;-51
2023/12/30 05:17:41;;;;;;;6.38;1.35;;;;;;;7.38;100.00;98884.47;5063553;28;20081;-51
2023/12/30 05:20:08;;;;;;;5.88;2.05;;;;;;;7.36;100.00;98881.13;5075130;28;20414;-51
2023/12/30 05:22:35;;;;;;;6.13;2.65;;;;;;;7.37;100.00;98877.44;5090387;28;20051;-51
2023/12/30 05:25:00;;;;;;;4.20;2.70;;;;;;;7.35;100.00;98884.84;5076438;28;20071;-51
2023/12/30 05:27:26;;;;;;;5.72;3.67;;;;;;;7.30;100.00;98885.38;5075220;28;20064;-51
2023/12/30 05:29:51;;;;;;;5.03;2.50;;;;;;;7.27;100.00;98882.22;5071239;28;20090;-51
2023/12/30 05:32:17;;;;;;;3.85;2.20;;;;;;;7.29;100.00;98890.94;5079990;28;20031;-51
2023/12/30 05:34:42;;;;;;;3.17;1.95;;;;;;;7.22;100.00;98878.19;5078628;28;20036;-51
2023/12/30 05:37:08;;;;;;;3.17;1.80;;;;;;;7.13;100.00;98865.84;5078727;28;20024;-51
2023/12/30 05:39:33;;;;;;;3.05;1.65;;;;;;;7.19;100.00;98875.88;5083622;28;20039;-51
2023/12/30 05:41:58;;;;;;;6.25;3.25;;;;;;;7.28;100.00;98875.81;5082817;28;20507;-51
2023/12/30 05:44:24;;;;;;;3.55;2.08;;;;;;;7.29;100.00;98888.25;5083044;28;20023;-51
2023/12/30 05:46:53;;;;;;;3.60;1.40;;;;;;;7.28;100.00;98884.72;5084316;28;20028;-51
2023/12/30 05:49:18;;;;;;;1.85;1.20;;;;;;;7.29;100.00;98888.25;5081352;28;20404;-51
2023/12/30 05:51:44;;;;;;;4.95;2.20;;;;;;;7.32;100.00;98885.22;5080875;28;20037;-51
2023/12/30 05:54:12;;;;;;;3.90;1.60;;;;;;;7.31;100.00;98895.13;5075297;28;20028;-51
2023/12/30 05:56:37;;;;;;;2.70;1.38;;;;;;;7.32;100.00;98895.97;5078165;28;20499;-51
2023/12/30 05:59:03;;;;;;;5.35;1.73;;;;;;;7.29;100.00;98896.34;5084544;28;20039;-52
2023/12/30 06:01:28;;;;;;;3.58;1.45;;;;;;;7.30;100.00;98906.91;5082624;28;20464;-51
2023/12/30 06:03:54;;;;;;;2.03;1.23;;;;;;;7.30;100.00;98890.75;5084922;28;20112;-51
2023/12/30 06:06:20;;;;;;;1.77;1.20;;;;;;;7.31;100.00;98883.50;5078140;28;20048;-52
2023/12/30 06:08:46;;;;;;;3.10;1.40;;;;;;;7.34;100.00;98900.16;5078081;28;20057;-52
2023/12/30 06:11:12;;;;;;;2.38;1.20;;;;;;;7.43;100.00;98892.84;5076053;28;20485;-52
2023/12/30 06:13:40;;;;;;;2.85;1.17;;;;;;;7.40;100.00;98896.72;5082404;28;20028;-52
2023/12/30 06:16:08;;;;;;;3.17;1.40;;;;;;;7.40;100.00;98894.03;5080104;28;20024;-52
2023/12/30 06:18:34;;;;;;;5.30;1.63;;;;;;;7.41;100.00;98901.13;5080360;28;20036;-52
2023/12/30 06:20:59;;;;;;;3.13;1.70;;;;;;;7.38;100.00;98889.84;5080398;28;20517;-52
2023/12/30 06:23:28;;;;;;;6.65;2.17;;;;;;;7.38;100.00;98893.38;5076772;28;20040;-52
2023/12/30 06:25:54;;;;;;;5.13;2.90;;;;;;;7.45;100.00;98890.81;5084314;28;20031;-52
2023/12/30 06:28:20;;;;;;;5.30;3.20;;;;;;;7.41;100.00;98893.03;5087697;28;20027;-53
2023/12/30 06:30:46;;;;;;;4.53;2.95;;;;;;;7.38;100.00;98889.84;5076802;28;20149;-52
2023/12/30 06:33:13;;;;;;;4.68;2.80;;;;;;;7.33;100.00;98886.88;5080913;28;20088;-51
2023/12/30 06:35:38;;;;;;;2.78;1.50;;;;;;;7.24;100.00;98897.69;5078758;28;20417;-52
2023/12/30 06:38:04;;;;;;;5.30;2.03;;;;;;;7.28;100.00;98908.09;5083781;28;20115;-51
2023/12/30 06:40:29;;;;;;;6.20;2.22;;;;;;;7.31;100.00;98907.72;5077498;28;20074;-52
2023/12/30 06:42:54;;;;;;;6.30;3.10;;;;;;;7.33;100.00;98913.78;5087421;28;20030;-52
2023/12/30 06:45:21;;;;;;;5.68;2.72;;;;;;;7.33;100.00;98919.16;5074931;28;20055;-52
2023/12/30 06:47:46;;;;;;;5.32;2.63;;;;;;;7.39;100.00;98923.84;5081402;28;20073;-52
2023/12/30 06:50:12;;;;;;;3.78;2.50;;;;;;;7.34;100.00;98918.16;5075183;28;20020;-52
2023/12/30 06:52:38;;;;;;;4.38;2.45;;;;;;;7.38;100.00;98922.16;5055822;28;20024;-52
2023/12/30 06:55:03;;;;;;;4.45;2.60;;;;;;;7.36;100.00;98929.56;5084077;28;20034;-52
2023/12/30 06:57:29;;;;;;;8.00;2.40;;;;;;;7.39;100.00;98919.28;5082524;28;20390;-52
2023/12/30 06:59:55;;;;;;;4.65;2.60;;;;;;;7.36;100.00;98918.78;5073939;28;20025;-52
2023/12/30 07:02:21;;;;;;;2.80;1.95;;;;;;;7.42;100.00;98924.31;5076199;28;20043;-52
2023/12/30 07:04:46;;;;;;;4.85;2.40;;;;;;;7.44;100.00;98922.28;5086395;28;20024;-52
2023/12/30 07:07:12;;;;;;;3.08;2.10;;;;;;;7.40;100.00;98920.13;5084832;28;20024;-52
2023/12/30 07:09:39;;;;;;;6.18;1.60;;;;;;;7.41;100.00;98927.16;5079918;28;20051;-52
2023/12/30 07:12:04;;;;;;;8.07;2.17;;;;;;;7.38;100.00;98911.38;5079779;28;20085;-52
2023/12/30 07:14:34;;;;;;;3.15;1.40;;;;;;;7.46;100.00;98927.47;5063412;28;20032;-52
2023/12/30 07:16:59;;;;;;;;;;;;;;;7.47;100.00;98929.16;5075180;28;20079;-52
2023/12/30 07:19:25;;;;;;;3.50;1.23;;;;;;;7.59;100.00;98925.00;5081615;28;20006;-52
2023/12/30 07:21:50;;;;;;;6.35;1.70;;;;;;;7.62;100.00;98919.28;5083750;28;20151;-52
2023/12/30 07:24:16;;;;;;;2.92;1.88;;;;;;;7.61;100.00;98924.84;5076418;28;20073;-52
2023/12/30 07:26:41;;;;;;;4.45;1.65;;;;;;;7.63;100.00;98920.94;5083080;28;20564;-52
2023/12/30 07:29:07;;;;;;;3.25;1.52;;;;;;;7.60;100.00;98926.69;5078543;28;20024;-51
2023/12/30 07:31:32;;;;;;;4.38;1.48;;;;;;;7.60;100.00;98926.69;5082083;28;20465;-51
2023/12/30 07:33:58;;;;;;;3.97;1.27;;;;;;;7.60;100.00;98929.38;5077667;28;20070;-52
2023/12/30 07:36:24;;;;;;;3.55;1.10;;;;;;;7.63;100.00;98936.28;5078228;28;20383;-55
2023/12/30 07:38:50;;;;;;;3.38;1.40;;;;;;;7.64;100.00;98943.31;5077353;28;20102;-54
2023/12/30 07:41:15;;;;;;;5.68;1.10;;;;;;;7.63;100.00;98937.09;5084793;28;20116;-55
2023/12/30 07:43:41;;;;;;;3.05;1.00;;;;;;;7.73;100.00;98946.78;5075446;28;20043;-56
2023/12/30 07:46:06;;;;;;;2.92;1.05;;;;;;;7.78;100.00;98945.22;5077143;28;20028;-56
2023/12/30 07:48:32;;;;;;;1.80;0.88;;;;;;;7.81;100.00;98944.84;5086027;28;20043;-56
2023/12/30 07:50:57;;;;;;;2.50;1.33;;;;;;;7.81;100.00;98954.81;5081833;28;20020;-56
2023/12/30 07:53:23;;;;;;;4.38;1.10;;;;;;;7.88;100.00;98948.47;5081256;28;20132;-56
2023/12/30 07:55:48;;;;;;;2.05;1.00;;;;;;;7.97;100.00;98949.25;5075993;28;20024;-57
2023/12/30 07:58:13;;;;;;;3.65;1.25;;;;;;;7.93;100.00;98953.31;5076558;28;20016;-56
2023/12/30 08:00:39;;;;;;;4.47;1.70;;;;;;;7.91;100.00;98955.34;5086272;28;20032;-56
2023/12/30 08:03:04;;;;;;;4.60;1.70;;;;;;;7.85;100.00;98961.47;5074443;28;20082;-56
2023/12/30 08:05:29;;;;;;;5.45;1.80;;;;;;;7.79;100.00;98965.75;5081718;28;20032;-56
2023/12/30 08:07:55;;;;;;;3.47;1.77;;;;;;;7.68;100.00;98961.63;5078312;28;20059;-55
2023/12/30 08:10:20;;;;;;;2.85;1.48;;;;;;;7.73;100.00;98973.69;5074091;28;20028;-55
2023/12/30 08:12:46;;;;;;;7.53;1.83;;;;;;;7.73;100.00;98987.16;5087568;28;20111;-55
2023/12/30 08:15:11;;;;;;;8.40;1.48;;;;;;;7.72;100.00;98988.19;5088915;28;20031;-55
2023/12/30 08:17:37;;;;;;;6.60;1.48;;;;;;;7.77;100.00;98992.00;5060722;28;20020;-55
2023/12/30 08:20:03;;;;;;;3.63;1.70;;;;;;;7.88;100.00;98993.44;5075334;28;20051;-55
2023/12/30 08:22:29;;;;;;;2.92;1.10;;;;;;;7.82;100.00;98976.16;5083058;28;20103;-55
2023/12/30 08:24:54;;;;;;;5.75;2.30;;;;;;;7.85;100.00;98978.47;5084872;28;20082;-55
2023/12/30 08:27:20;;;;;;;3.45;1.17;;;;;;;7.75;100.00;98971.66;5079776;28;20494;-55
2023/12/30 08:29:45;;;;;;;5.10;1.65;;;;;;;7.75;100.00;98961.72;5073245;28;20086;-55
2023/12/30 08:32:11;;;;;;;7.88;2.42;;;;;;;7.78;100.00;98963.22;5077637;28;20028;-56
2023/12/30 08:34:36;;;;;;;10.65;3.45;;;;;;;7.80;100.00;98964.72;5078959;28;20035;-55
2023/12/30 08:37:08;;;;;;;6.55;2.30;;;;;;;7.76;100.00;98976.88;5079223;28;20043;-55
2023/12/30 08:39:35;;;;;;;6.65;2.08;;;;;;;7.86;100.00;98979.34;5063241;28;20012;-55
2023/12/30 08:42:02;;;;;;;7.18;3.50;;;;;;;7.95;100.00;98967.44;5073617;28;20119;-56
2023/12/30 08:44:27;;;;;;;37.42;13.85;;;;;;;8.13;100.00;98983.28;5073187;28;20024;-56
2023/12/30 08:46:53;;;;;;;28.63;10.50;;;;;;;8.15;100.00;98983.09;5076626;28;20039;-56
2023/12/30 08:49:18;;;;;;;13.43;7.18;;;;;;;8.22;100.00;98978.66;5080495;28;20039;-55
2023/12/30 08:51:44;;;;;;;11.32;5.05;;;;;;;8.34;100.00;98988.78;5085159;28;20035;-56
2023/12/30 08:54:09;;;;;;;15.23;7.47;;;;;;;8.33;100.00;98984.44;5079159;28;20038;-54
2023/12/30 08:56:35;;;;;;;15.77;7.35;;;;;;;8.45;100.00;98987.53;5081023;28;20027;-56
2023/12/30 08:59:00;;;;;;;14.15;6.22;;;;;;;8.50;100.00;98985.13;5081942;28;20056;-54
2023/12/30 09:01:26;;;;;;;5.43;3.20;;;;;;;8.58;100.00;98984.19;5078777;28;21839;-54
2023/12/30 09:03:51;;;;;;;4.05;2.30;;;;;;;8.70;100.00;98981.88;5087517;28;20032;-55
2023/12/30 09:06:16;;;;;;;22.08;6.72;;;;;;;8.78;100.00;98965.59;5074013;28;20039;-55
2023/12/30 09:08:42;;;;;;;38.97;10.95;;;;;;;8.86;100.00;98976.28;5084083;28;20047;-55
2023/12/30 09:11:21;;;;;;;25.77;9.15;;;;;;;8.93;100.00;98968.25;5087108;28;20464;-55
2023/12/30 09:13:47;;;;;;;31.27;11.07;;;;;;;8.98;100.00;98972.06;5087033;28;20172;-55
2023/12/30 09:16:13;;;;;;;15.98;6.43;;;;;;;8.98;100.00;98953.16;5073960;28;20035;-55
2023/12/30 09:18:38;;;;;;;9.70;4.63;;;;;;;9.05;100.00;98952.41;5080558;28;20111;-55
2023/12/30 09:21:03;;;;;;;7.85;2.90;;;;;;;9.17;100.00;98961.72;5084560;28;20036;-55
2023/12/30 09:23:29;;;;;;;5.05;2.03;;;;;;;9.17;100.00;98964.41;5082229;28;20082;-55
2023/12/30 09:25:54;;;;;;;3.85;2.55;;;;;;;9.40;100.00;98966.91;5089064;28;20089;-55
2023/12/30 09:28:20;;;;;;;3.10;2.22;;;;;;;9.37;100.00;98951.94;5064708;28;20027;-55
2023/12/30 09:30:45;;;;;;;4.47;1.98;;;;;;;9.54;100.00;98965.22;5085579;28;20024;-54
2023/12/30 09:33:11;;;;;;;4.28;1.80;;;;;;;9.72;100.00;98965.59;5082954;28;20028;-54
2023/12/30 09:35:36;;;;;;;4.22;2.35;;;;;;;9.84;100.00;98958.63;5058596;28;20387;-54
2023/12/30 09:38:01;;;;;;;7.45;2.55;;;;;;;10.01;100.00;98969.16;5063424;28;20097;-54
2023/12/30 09:40:27;;;;;;;4.45;1.83;;;;;;;10.13;100.00;98966.75;5081789;28;20028;-54
2023/12/30 09:42:55;;;;;;;4.32;1.70;;;;;;;10.35;100.00;98964.84;5087482;28;20459;-55
2023/12/30 09:45:22;;;;;;;5.38;2.15;;;;;;;10.79;100.00;98955.53;5079354;28;20028;-55
2023/12/30 09:48:07;;;;;;;18.45;6.85;;;;;;;12.19;100.00;98945.84;5073021;28;20429;-55
2023/12/30 09:50:34;;;;;;;64.00;14.50;;;;;;;14.11;100.00;98933.19;5080393;28;20035;-54
2023/12/30 09:53:00;;;;;;;87.97;19.80;;;;;;;16.44;100.00;98924.59;5080677;28;20025;-54
2023/12/30 09:55:25;;;;;;;30.23;8.43;;;;;;;17.62;100.00;98921.56;5090591;28;20028;-54
2023/12/30 09:57:50;;;;;;;28.40;6.97;;;;;;;18.38;100.00;98916.53;5070952;28;20020;-54
2023/12/30 10:00:18;;;;;;;8.40;2.30;;;;;;;19.72;93.71;98917.09;5077566;28;20016;-54
2023/12/30 10:02:44;;;;;;;25.80;8.88;;;;;;;20.40;86.42;98913.78;5058325;28;20032;-55
2023/12/30 10:05:10;;;;;;;8.90;3.58;;;;;;;20.92;73.87;98929.50;5082263;28;20110;-54
2023/12/30 10:07:35;;;;;;;3.53;1.48;;;;;;;21.00;74.14;98935.31;5084995;28;20028;-54
2023/12/30 10:10:01;;;;;;;1.75;0.38;;;;;;;21.66;69.26;98925.63;5067654;28;20055;-53
2023/12/30 10:12:26;;;;;;;1.38;0.80;;;;;;;22.25;66.81;98921.56;5083274;28;20111;-55
2023/12/30 10:14:52;;;;;;;1.50;0.50;;;;;;;21.70;68.63;98925.94;5083871;28;20063;-54
2023/12/30 10:17:18;;;;;;;2.10;0.50;;;;;;;21.78;66.35;98922.63;5083248;28;20455;-54
2023/12/30 10:19:44;;;;;;;0.75;0.38;;;;;;;21.61;70.75;98917.34;5087687;28;20125;-54
2023/12/30 10:22:10;;;;;;;1.30;0.47;;;;;;;22.26;69.44;98917.69;5078586;28;20495;-54
2023/12/30 10:24:36;;;;;;;2.13;0.40;;;;;;;19.91;72.22;98918.38;5086306;28;20036;-54
2023/12/30 10:27:04;;;;;;;1.95;0.75;;;;;;;17.49;86.57;98911.75;5075532;28;20550;-53
2023/12/30 10:29:31;;;;;;;1.15;0.65;;;;;;;18.66;94.25;98915.56;5087818;28;20054;-54
2023/12/30 10:32:00;;;;;;;1.23;0.60;;;;;;;20.12;78.54;98908.38;5081855;28;20027;-54
2023/12/30 10:34:27;;;;;;;1.05;0.30;;;;;;;20.94;73.89;98913.56;5078782;28;20091;-54
2023/12/30 10:36:53;;;;;;;2.38;0.40;;;;;;;20.16;72.58;98911.41;5082387;28;20052;-52
2023/12/30 10:39:22;;;;;;;2.35;0.75;;;;;;;19.36;77.58;98916.72;5084338;28;20051;-52
2023/12/30 10:41:47;;;;;;;1.10;0.50;;;;;;;18.95;80.17;98921.72;5076665;28;20034;-53
2023/12/30 10:44:13;;;;;;;0.57;0.52;;;;;;;18.09;96.71;98910.34;5077513;28;20387;-53
2023/12/30 10:46:40;;;;;;;1.13;0.70;;;;;;;18.68;97.04;98915.28;5076464;28;20066;-52
2023/12/30 10:49:10;;;;;;;2.13;0.70;;;;;;;19.38;88.40;98909.03;5080389;28;20032;-54
2023/12/30 10:51:38;;;;;;;1.55;0.55;;;;;;;21.05;74.39;98907.00;5079120;28;20105;-54
2023/12/30 10:54:06;;;;;;;2.33;1.13;;;;;;;18.38;80.46;98911.03;5076935;28;20060;-54
2023/12/30 10:56:40;;;;;;;2.85;0.50;;;;;;;18.36;93.77;98907.72;5079633;28;20090;-54
2023/12/30 10:59:07;;;;;;;2.53;0.70;;;;;;;18.34;91.38;98904.44;5065018;28;20466;-54
2023/12/30 11:01:34;;;;;;;1.10;0.60;;;;;;;19.09;85.87;98904.88;5081530;28;20028;-54
2023/12/30 11:04:03;;;;;;;1.95;0.63;;;;;;;19.75;77.47;98902.84;5078382;28;20082;-54
2023/12/30 11:06:41;;;;;;;1.23;0.50;;;;;;;20.26;70.92;98903.25;5076017;28;20031;-55
2023/12/30 11:09:09;;;;;;;2.50;0.57;;;;;;;20.54;70.24;98899.34;5073797;28;20419;-54
2023/12/30 11:11:39;;;;;;;1.50;0.52;;;;;;;21.31;66.62;98896.91;5084901;28;20047;-54
2023/12/30 11:14:14;;;;;;;1.50;0.63;;;;;;;21.05;65.18;98909.75;5085110;28;20036;-54
2023/12/30 11:16:40;;;;;;;1.25;0.35;;;;;;;20.55;63.90;98897.41;5081957;28;20029;-55
2023/12/30 11:19:06;;;;;;;1.88;0.60;;;;;;;21.39;63.33;98901.09;5089199;28;20073;-54
2023/12/30 11:21:42;;;;;;;2.67;0.60;;;;;;;21.23;60.08;98894.69;5095083;28;20435;-54
2023/12/30 11:24:10;;;;;;;1.50;0.45;;;;;;;19.95;63.38;98898.63;5087479;28;20387;-54
2023/12/30 11:26:39;;;;;;;1.55;0.40;;;;;;;19.15;68.17;98903.84;5075280;28;20104;-53